Time;durP1;ratioP1;P1;durP2;ratioP2;P2;SDS_P1;SDS_P2;PMS_P1;PMS_P2;Temp;Humidity;BMP_temperature;BMP_pressure;BME280_temperature;BME280_humidity;BME280_pressure;Samples;Min_cycle;Max_cycle;Signal;HPM_P1;HPM_P2
2022/01/28 00:00:50;;;;;;;2.08;0.47;;;29.90;95.40;;;;;;5062729;28;20115;-78
2022/01/28 00:03:17;;;;;;;0.35;0.28;;;30.00;95.10;;;;;;5056168;28;20025;-78
2022/01/28 00:05:44;;;;;;;1.40;0.82;;;30.00;95.00;;;;;;5059961;28;20024;-76
2022/01/28 00:08:12;;;;;;;2.28;0.80;;;30.00;95.60;;;;;;5057084;28;20044;-79
2022/01/28 00:10:40;;;;;;;0.85;0.20;;;29.80;95.20;;;;;;5065295;28;20498;-75
2022/01/28 00:40:26;;;;;;;1.85;0.30;;;29.80;95.00;;;;;;5056467;28;20036;-76
2022/01/28 00:42:53;;;;;;;0.68;0.30;;;29.80;94.70;;;;;;5060292;28;20036;-75
2022/01/28 00:45:20;;;;;;;4.32;0.85;;;30.10;94.70;;;;;;5058991;28;20028;-78
2022/01/28 00:47:48;;;;;;;5.43;1.48;;;30.20;94.50;;;;;;5061080;28;20047;-75
2022/01/28 00:50:16;;;;;;;2.00;1.15;;;30.20;94.70;;;;;;5058609;28;20128;-75
2022/01/28 00:52:43;;;;;;;2.60;0.22;;;30.40;94.60;;;;;;5059603;28;20048;-74
2022/01/28 00:55:11;;;;;;;1.30;0.30;;;30.60;94.20;;;;;;5057660;28;20115;-77
2022/01/28 00:57:39;;;;;;;4.22;0.30;;;30.60;94.40;;;;;;5055682;28;20089;-76
2022/01/28 01:00:08;;;;;;;1.58;0.50;;;30.70;93.90;;;;;;5052453;28;20040;-78
2022/01/28 01:02:36;;;;;;;6.70;0.73;;;31.00;94.50;;;;;;5052128;28;20143;-77
2022/01/28 01:05:03;;;;;;;1.48;0.32;;;31.30;93.40;;;;;;5058441;28;20090;-75
2022/01/28 01:07:31;;;;;;;2.97;0.50;;;31.60;93.20;;;;;;5050707;28;20099;-76
2022/01/28 01:09:58;;;;;;;2.10;0.40;;;31.40;92.80;;;;;;5052689;28;20032;-77
2022/01/28 01:12:28;;;;;;;1.40;0.40;;;31.60;92.60;;;;;;5052186;28;20048;-76
2022/01/28 01:14:55;;;;;;;4.00;0.40;;;32.00;92.80;;;;;;5051657;28;20067;-77
2022/01/28 01:20:52;;;;;;;1.73;0.30;;;32.70;91.80;;;;;;5051134;28;20372;-73
2022/01/28 01:23:11;;;;;;;3.03;0.45;;;32.90;92.60;;;;;;5051654;28;20060;-73
2022/01/28 01:25:50;;;;;;;1.08;0.35;;;33.20;91.60;;;;;;5051391;28;20440;-73
2022/01/28 01:28:21;;;;;;;1.35;0.40;;;33.50;91.20;;;;;;5050601;28;20045;-73
2022/01/28 01:30:48;;;;;;;2.95;0.40;;;33.80;91.20;;;;;;5053554;28;20021;-73
2022/01/28 01:33:18;;;;;;;1.13;0.43;;;34.00;91.20;;;;;;5049201;28;20025;-74
2022/01/28 01:35:46;;;;;;;1.52;0.50;;;34.10;91.00;;;;;;5054898;28;20165;-74
2022/01/28 01:38:13;;;;;;;0.88;0.40;;;34.00;90.30;;;;;;5057285;28;20028;-74
2022/01/28 01:40:53;;;;;;;1.50;0.40;;;34.00;89.40;;;;;;5049384;28;20032;-73
2022/01/28 01:43:38;;;;;;;1.20;0.40;;;34.00;90.10;;;;;;5051112;28;20036;-74
2022/01/28 01:54:09;;;;;;;2.45;0.60;;;33.60;90.10;;;;;;5052161;28;20055;-73
2022/01/28 01:56:39;;;;;;;3.47;0.40;;;33.60;90.20;;;;;;5066829;28;20060;-73
2022/01/28 01:59:09;;;;;;;0.63;0.30;;;33.80;91.20;;;;;;5053164;28;20025;-74
2022/01/28 02:01:38;;;;;;;2.30;0.43;;;34.30;90.00;;;;;;5055466;28;20032;-74
2022/01/28 02:04:06;;;;;;;0.73;0.30;;;34.80;88.90;;;;;;5057808;28;20483;-73
2022/01/28 02:06:34;;;;;;;1.33;0.50;;;35.20;90.00;;;;;;5066374;28;20059;-73
2022/01/28 02:09:01;;;;;;;4.32;0.50;;;35.60;88.10;;;;;;5066316;28;20401;-73
2022/01/28 02:11:28;;;;;;;2.00;0.65;;;35.80;88.10;;;;;;5067107;28;20032;-74
2022/01/28 02:13:56;;;;;;;3.55;0.60;;;36.00;87.40;;;;;;5055592;28;20032;-73
2022/01/28 02:16:23;;;;;;;0.70;0.40;;;35.90;85.90;;;;;;5049781;28;20361;-73
2022/01/28 02:18:52;;;;;;;3.10;0.70;;;35.50;85.70;;;;;;5055181;28;20045;-73
2022/01/28 02:21:19;;;;;;;2.22;0.68;;;35.70;88.30;;;;;;5059639;28;20091;-74
2022/01/28 02:23:51;;;;;;;1.17;0.40;;;36.00;87.40;;;;;;5050684;28;20059;-73
2022/01/28 02:26:19;;;;;;;0.95;0.35;;;35.30;84.80;;;;;;5049024;28;20230;-72
2022/01/28 02:28:51;;;;;;;2.97;0.55;;;34.30;87.00;;;;;;5057792;28;20437;-74
2022/01/28 02:31:22;;;;;;;2.67;0.85;;;33.80;88.70;;;;;;5062509;28;20043;-73
2022/01/28 02:33:52;;;;;;;2.38;0.40;;;34.20;88.80;;;;;;5058649;28;20034;-72
2022/01/28 02:36:20;;;;;;;2.13;0.77;;;34.70;87.10;;;;;;5052284;28;20420;-72
2022/01/28 02:38:47;;;;;;;2.80;1.48;;;35.20;85.90;;;;;;5056476;28;20107;-74
2022/01/28 02:41:14;;;;;;;1.73;0.35;;;35.20;87.10;;;;;;5067646;28;20123;-73
2022/01/28 02:43:55;;;;;;;1.80;0.80;;;35.80;87.20;;;;;;5064420;28;20424;-73
2022/01/28 02:46:25;;;;;;;2.30;0.63;;;35.90;85.60;;;;;;5057667;28;20032;-73
2022/01/28 02:49:00;;;;;;;0.77;0.63;;;35.30;86.40;;;;;;5061478;28;20123;-74
2022/01/28 02:51:28;;;;;;;2.33;0.50;;;35.00;85.20;;;;;;5067200;28;20021;-75
2022/01/28 02:53:59;;;;;;;1.60;0.60;;;35.40;86.00;;;;;;5064448;28;20108;-75
2022/01/28 02:56:38;;;;;;;0.98;0.60;;;35.70;85.40;;;;;;5067462;28;20021;-75
2022/01/28 02:59:07;;;;;;;0.70;0.38;;;35.80;84.30;;;;;;5058447;28;20074;-75
2022/01/28 03:01:35;;;;;;;1.92;0.50;;;35.80;84.40;;;;;;5063236;28;20029;-73
2022/01/28 03:04:04;;;;;;;1.10;0.47;;;36.20;84.50;;;;;;5059838;28;20028;-73
2022/01/28 03:06:31;;;;;;;1.27;0.80;;;36.50;83.00;;;;;;5070815;28;20391;-73
2022/01/28 03:09:05;;;;;;;3.08;0.60;;;37.00;83.70;;;;;;5064971;28;20116;-72
2022/01/28 03:16:32;;;;;;;2.00;0.88;;;35.10;84.30;;;;;;5064642;28;20445;-72
2022/01/28 03:19:24;;;;;;;2.25;0.50;;;34.60;85.30;;;;;;5073818;28;20032;-72
2022/01/28 03:22:04;;;;;;;2.90;0.70;;;34.30;85.80;;;;;;5064173;28;20082;-73
2022/01/28 03:24:31;;;;;;;1.60;0.63;;;34.30;86.10;;;;;;5058152;28;20170;-72
2022/01/28 03:27:04;;;;;;;1.55;0.63;;;34.80;87.70;;;;;;5069227;28;20040;-72
2022/01/28 03:29:32;;;;;;;1.52;0.70;;;35.40;85.50;;;;;;5066556;28;20036;-72
2022/01/28 03:31:59;;;;;;;2.70;0.70;;;35.10;84.70;;;;;;5062452;28;20107;-72
2022/01/28 03:34:26;;;;;;;1.58;1.08;;;35.00;85.50;;;;;;5067546;28;20040;-73
2022/01/28 03:36:56;;;;;;;1.23;0.52;;;35.50;84.80;;;;;;5065994;28;20108;-73
2022/01/28 03:39:23;;;;;;;3.00;0.77;;;35.80;84.30;;;;;;5061971;28;20059;-73
2022/01/28 03:41:51;;;;;;;1.27;0.45;;;35.80;84.50;;;;;;5059727;28;20036;-73
2022/01/28 03:44:18;;;;;;;2.70;0.90;;;35.90;85.40;;;;;;5059101;28;20438;-73
2022/01/28 03:46:45;;;;;;;1.63;0.55;;;35.70;84.20;;;;;;5061440;28;20062;-73
2022/01/28 03:49:12;;;;;;;4.32;0.70;;;35.60;86.30;;;;;;5065719;28;20040;-72
2022/01/28 03:51:40;;;;;;;2.55;0.50;;;35.90;84.60;;;;;;5063614;28;20147;-72
2022/01/28 03:54:07;;;;;;;1.10;0.60;;;35.40;84.40;;;;;;5065748;28;20488;-73
2022/01/28 03:56:34;;;;;;;2.30;0.68;;;34.70;86.00;;;;;;5069581;28;20024;-73
2022/01/28 03:59:02;;;;;;;1.45;0.60;;;34.70;86.00;;;;;;5060748;28;20029;-73
2022/01/28 04:01:34;;;;;;;2.13;0.70;;;35.00;85.60;;;;;;5064234;28;20123;-74
2022/01/28 04:12:20;;;;;;;5.32;1.00;;;34.30;86.10;;;;;;5062336;28;20115;-72
2022/01/28 04:15:05;;;;;;;0.68;0.40;;;34.10;86.50;;;;;;5057542;28;20111;-71
2022/01/28 04:17:33;;;;;;;3.63;0.75;;;33.90;87.50;;;;;;5062449;28;20040;-72
2022/01/28 04:20:00;;;;;;;4.10;0.80;;;34.00;87.20;;;;;;5063953;28;20056;-72
2022/01/28 04:22:28;;;;;;;2.75;0.65;;;34.50;87.60;;;;;;5053742;28;20079;-72
2022/01/28 04:24:55;;;;;;;1.38;0.60;;;34.70;86.40;;;;;;5053744;28;20020;-73
2022/01/28 04:27:22;;;;;;;1.85;0.80;;;34.40;86.10;;;;;;5063239;28;20037;-73
2022/01/28 04:29:51;;;;;;;1.95;0.98;;;34.60;86.60;;;;;;5063953;28;20044;-72
2022/01/28 04:32:20;;;;;;;1.40;0.60;;;34.90;87.40;;;;;;5062779;28;20037;-73
2022/01/28 04:34:47;;;;;;;1.98;0.70;;;35.30;85.70;;;;;;5056745;28;20053;-73
2022/01/28 04:40:22;;;;;;;1.00;0.65;;;35.80;86.30;;;;;;5062742;28;20079;-73
2022/01/28 04:43:02;;;;;;;4.30;0.80;;;36.10;84.60;;;;;;5050938;28;20086;-74
2022/01/28 04:45:52;;;;;;;0.82;0.63;;;35.80;84.20;;;;;;5059825;28;20028;-72
2022/01/28 04:48:24;;;;;;;1.13;0.68;;;35.30;85.40;;;;;;5061941;28;20037;-72
2022/01/28 04:53:37;;;;;;;3.47;0.60;;;35.20;85.80;;;;;;5063675;28;20328;-73
2022/01/28 04:56:19;;;;;;;0.93;0.73;;;34.90;86.50;;;;;;5065751;28;20033;-73
2022/01/28 05:06:46;;;;;;;1.77;0.93;;;34.30;88.00;;;;;;5060299;28;20029;-72
2022/01/28 05:12:23;;;;;;;1.48;0.85;;;33.90;88.30;;;;;;5064728;28;20074;-72
2022/01/28 05:28:05;;;;;;;3.10;1.15;;;34.80;86.90;;;;;;5056882;28;20039;-72
2022/01/28 05:30:32;;;;;;;1.90;0.65;;;34.80;87.00;;;;;;5064068;28;20036;-72
2022/01/28 05:32:59;;;;;;;1.42;0.60;;;34.80;87.00;;;;;;5053602;28;20021;-74
2022/01/28 05:35:27;;;;;;;1.30;0.63;;;34.90;86.60;;;;;;5057048;28;20032;-74
2022/01/28 05:37:54;;;;;;;2.13;0.95;;;34.80;86.50;;;;;;5051744;28;20032;-74
2022/01/28 05:40:22;;;;;;;1.45;0.55;;;34.40;86.50;;;;;;5051374;28;20029;-73
2022/01/28 05:42:49;;;;;;;2.35;0.80;;;33.80;88.30;;;;;;5049453;28;20510;-73
2022/01/28 05:45:16;;;;;;;1.15;0.60;;;33.50;89.60;;;;;;5050186;28;20387;-75
2022/01/28 05:47:44;;;;;;;5.00;1.50;;;33.50;89.50;;;;;;5058832;28;20340;-75
2022/01/28 05:50:12;;;;;;;1.10;0.57;;;33.40;89.30;;;;;;5065432;28;20059;-75
2022/01/28 05:52:40;;;;;;;6.05;1.33;;;33.10;89.90;;;;;;5059962;28;20112;-73
2022/01/28 05:55:07;;;;;;;3.55;0.77;;;32.90;90.30;;;;;;5055831;28;20106;-75
2022/01/28 05:57:35;;;;;;;3.03;0.82;;;32.50;90.50;;;;;;5065368;28;20067;-71
2022/01/28 06:00:04;;;;;;;2.85;1.17;;;32.20;91.00;;;;;;5054913;28;20029;-74
2022/01/28 06:02:31;;;;;;;3.40;0.85;;;32.10;91.20;;;;;;5052499;28;20024;-74
2022/01/28 06:04:59;;;;;;;1.27;0.60;;;32.10;91.10;;;;;;5059876;28;20029;-73
2022/01/28 06:07:26;;;;;;;2.88;0.80;;;32.00;91.40;;;;;;5056461;28;20036;-71
2022/01/28 06:09:53;;;;;;;1.15;0.55;;;31.90;91.50;;;;;;5061356;28;20075;-73
2022/01/28 06:12:21;;;;;;;2.35;0.70;;;32.10;91.50;;;;;;5061408;28;20032;-74
2022/01/28 06:14:48;;;;;;;8.82;0.70;;;32.10;91.20;;;;;;5057311;28;20479;-73
2022/01/28 06:17:16;;;;;;;4.68;1.00;;;32.20;91.00;;;;;;5051239;28;20372;-74
2022/01/28 06:19:43;;;;;;;3.63;0.65;;;32.30;91.00;;;;;;5052725;28;20078;-74
2022/01/28 06:22:10;;;;;;;2.35;0.80;;;32.50;90.90;;;;;;5057512;28;20032;-72
2022/01/28 06:24:37;;;;;;;2.53;0.38;;;32.50;90.90;;;;;;5062409;28;20029;-73
2022/01/28 06:27:05;;;;;;;5.07;0.73;;;32.40;90.80;;;;;;5068207;28;20051;-74
2022/01/28 06:29:32;;;;;;;2.40;0.60;;;32.20;90.90;;;;;;5064867;28;20075;-74
2022/01/28 06:32:00;;;;;;;2.55;0.70;;;31.80;91.30;;;;;;5063346;28;20402;-73
2022/01/28 06:34:28;;;;;;;2.47;0.93;;;31.70;91.50;;;;;;5066718;28;20033;-73
2022/01/28 06:36:57;;;;;;;4.78;0.70;;;31.80;91.50;;;;;;5065962;28;20033;-73
2022/01/28 06:39:24;;;;;;;2.95;0.40;;;31.70;91.50;;;;;;5061915;28;20020;-73
2022/01/28 06:41:51;;;;;;;2.13;0.50;;;31.70;91.40;;;;;;5068560;28;20116;-73
2022/01/28 06:44:19;;;;;;;1.45;0.50;;;31.60;91.80;;;;;;5060386;28;20028;-73
2022/01/28 06:46:46;;;;;;;4.03;0.98;;;31.70;91.60;;;;;;5071272;28;20055;-75
2022/01/28 06:49:13;;;;;;;2.47;0.68;;;31.80;91.40;;;;;;5060556;28;20490;-74
2022/01/28 06:51:41;;;;;;;1.77;0.40;;;31.70;91.50;;;;;;5070623;28;20034;-76
2022/01/28 06:54:08;;;;;;;1.63;1.17;;;31.60;91.70;;;;;;5055668;28;20472;-73
2022/01/28 06:56:36;;;;;;;4.25;0.90;;;31.50;91.80;;;;;;5064444;28;20103;-73
2022/01/28 06:59:03;;;;;;;2.75;0.63;;;31.60;91.90;;;;;;5068143;28;20028;-75
2022/01/28 07:01:31;;;;;;;4.97;1.15;;;31.60;91.30;;;;;;5066693;28;20032;-75
2022/01/28 07:04:00;;;;;;;4.28;0.68;;;31.50;91.50;;;;;;5070001;28;20033;-72
2022/01/28 07:06:28;;;;;;;5.18;1.40;;;31.50;91.60;;;;;;5066768;28;20060;-74
2022/01/28 07:08:55;;;;;;;1.33;0.52;;;31.40;91.80;;;;;;5068916;28;20072;-73
2022/01/28 07:11:22;;;;;;;3.50;0.65;;;31.20;91.70;;;;;;5063597;28;20040;-76
2022/01/28 07:13:49;;;;;;;3.40;0.60;;;31.20;91.80;;;;;;5058014;28;20033;-75
2022/01/28 07:16:17;;;;;;;1.27;0.50;;;31.20;91.90;;;;;;5068884;28;20025;-72
2022/01/28 07:18:44;;;;;;;3.85;1.13;;;31.30;91.50;;;;;;5065277;28;20024;-73
2022/01/28 07:21:11;;;;;;;3.70;1.23;;;31.20;91.60;;;;;;5068794;28;20063;-73
2022/01/28 07:23:39;;;;;;;1.92;0.70;;;31.20;91.80;;;;;;5064772;28;20032;-75
2022/01/28 07:26:06;;;;;;;2.38;0.75;;;30.90;91.90;;;;;;5066100;28;20047;-75
2022/01/28 07:28:35;;;;;;;1.45;0.40;;;30.80;92.00;;;;;;5064182;28;20032;-74
2022/01/28 07:31:02;;;;;;;3.22;0.90;;;30.80;91.80;;;;;;5062231;28;20020;-74
2022/01/28 07:33:30;;;;;;;2.50;0.52;;;30.80;91.80;;;;;;5067114;28;20088;-76
2022/01/28 07:35:57;;;;;;;3.33;0.80;;;30.60;92.00;;;;;;5061668;28;20345;-75
2022/01/28 07:38:24;;;;;;;1.85;0.47;;;30.50;92.00;;;;;;5058557;28;20036;-75
2022/01/28 07:40:52;;;;;;;3.22;0.73;;;30.40;91.90;;;;;;5056548;28;20033;-77
2022/01/28 07:43:19;;;;;;;1.65;0.47;;;30.20;92.10;;;;;;5059785;28;20036;-76
2022/01/28 07:45:46;;;;;;;0.65;0.30;;;30.10;92.20;;;;;;5067302;28;20488;-75
2022/01/28 07:48:14;;;;;;;2.20;0.32;;;30.10;92.30;;;;;;5065562;28;20090;-77
2022/01/28 07:50:41;;;;;;;1.63;0.50;;;30.00;92.10;;;;;;5064231;28;20044;-77
2022/01/28 07:53:11;;;;;;;3.88;0.60;;;29.90;92.50;;;;;;5059747;28;20029;-76
2022/01/28 07:55:38;;;;;;;2.00;0.50;;;29.90;92.30;;;;;;5058021;28;20048;-76
2022/01/28 07:58:05;;;;;;;5.05;0.65;;;29.90;92.10;;;;;;5061683;28;20044;-73
2022/01/28 08:00:33;;;;;;;2.33;0.30;;;29.80;92.30;;;;;;5059337;28;20036;-73
2022/01/28 08:03:00;;;;;;;6.70;0.75;;;29.80;92.40;;;;;;5063237;28;20052;-75
2022/01/28 08:05:28;;;;;;;4.82;0.52;;;29.70;92.50;;;;;;5056770;28;20560;-74
2022/01/28 08:07:56;;;;;;;2.33;0.35;;;29.60;92.70;;;;;;5060870;28;20093;-74
2022/01/28 08:10:23;;;;;;;7.00;0.80;;;29.50;92.70;;;;;;5069908;28;20081;-74
2022/01/28 08:12:53;;;;;;;4.80;1.15;;;29.50;92.90;;;;;;5066123;28;20036;-74
2022/01/28 08:15:22;;;;;;;2.70;0.63;;;29.40;92.90;;;;;;5060429;28;20060;-73
2022/01/28 08:17:50;;;;;;;1.90;0.50;;;29.30;93.10;;;;;;5058699;28;21893;-73
2022/01/28 08:20:17;;;;;;;1.92;0.70;;;29.10;93.20;;;;;;5067653;28;20032;-73
2022/01/28 08:22:53;;;;;;;4.78;0.40;;;28.90;93.50;;;;;;5067882;28;20017;-73
2022/01/28 08:25:24;;;;;;;6.97;1.65;;;28.80;93.70;;;;;;5068897;28;20032;-73
2022/01/28 08:27:52;;;;;;;4.65;0.73;;;28.80;93.80;;;;;;5055653;28;20039;-73
2022/01/28 08:30:24;;;;;;;4.20;1.02;;;28.70;94.00;;;;;;5055557;28;20031;-73
2022/01/28 08:32:53;;;;;;;2.72;0.68;;;28.60;94.10;;;;;;5069302;28;20431;-73
2022/01/28 08:35:33;;;;;;;1.35;0.50;;;28.40;94.70;;;;;;5064454;28;20032;-74
2022/01/28 08:38:01;;;;;;;4.32;0.73;;;28.30;94.60;;;;;;5056318;28;20498;-76
2022/01/28 08:40:30;;;;;;;2.28;0.40;;;28.20;94.90;;;;;;5056670;28;20056;-76
2022/01/28 08:42:58;;;;;;;1.83;0.70;;;28.10;95.00;;;;;;5050963;28;20036;-85
2022/01/28 08:45:25;;;;;;;2.22;0.50;;;28.00;95.20;;;;;;5051637;28;20140;-78
2022/01/28 08:47:53;;;;;;;4.32;1.30;;;27.90;95.30;;;;;;5056503;28;20040;-81
2022/01/28 08:50:20;;;;;;;1.65;0.80;;;27.80;95.60;;;;;;5060308;28;20545;-81
2022/01/28 08:52:50;;;;;;;3.58;0.77;;;27.70;95.70;;;;;;5053567;28;20055;-81
2022/01/28 08:55:18;;;;;;;3.55;1.10;;;27.70;95.90;;;;;;5055114;28;20025;-76
2022/01/28 08:57:45;;;;;;;2.85;0.70;;;27.60;96.00;;;;;;5056278;28;20025;-79
2022/01/28 09:00:21;;;;;;;3.30;0.68;;;27.60;96.00;;;;;;5058412;28;20447;-78
2022/01/28 09:02:52;;;;;;;3.55;0.70;;;27.60;95.90;;;;;;5051579;28;20047;-79
2022/01/28 09:05:20;;;;;;;5.53;1.20;;;27.50;96.00;;;;;;5061865;28;20106;-82
2022/01/28 09:07:48;;;;;;;1.35;0.60;;;27.60;96.00;;;;;;5058711;28;20107;-75
2022/01/28 09:10:23;;;;;;;4.40;1.90;;;27.50;96.00;;;;;;5056419;28;20025;-79
2022/01/28 09:15:34;;;;;;;2.75;0.70;;;27.30;96.10;;;;;;5057503;28;20028;-79
2022/01/28 09:18:02;;;;;;;3.00;1.30;;;27.30;96.20;;;;;;5060413;28;20032;-79
2022/01/28 09:20:33;;;;;;;8.60;0.80;;;27.20;96.30;;;;;;5054087;28;20463;-75
2022/01/28 09:23:02;;;;;;;3.20;0.50;;;27.20;96.40;;;;;;5054064;28;20111;-80
2022/01/28 09:25:30;;;;;;;7.85;1.17;;;27.00;96.50;;;;;;5053253;28;20055;-82
2022/01/28 09:27:57;;;;;;;3.17;0.63;;;26.90;96.80;;;;;;5052891;28;20032;-81
2022/01/28 09:30:25;;;;;;;2.38;1.58;;;26.80;96.90;;;;;;5059521;28;20494;-77
2022/01/28 09:32:52;;;;;;;2.95;0.70;;;26.70;97.00;;;;;;5053009;28;20032;-81
2022/01/28 09:35:20;;;;;;;4.43;1.15;;;26.60;97.10;;;;;;5055099;28;20110;-79
2022/01/28 09:37:47;;;;;;;6.18;0.77;;;26.60;97.10;;;;;;5060530;28;20028;-78
2022/01/28 09:40:15;;;;;;;5.90;0.60;;;26.60;97.60;;;;;;5060698;28;20032;-77
2022/01/28 09:42:45;;;;;;;4.32;0.60;;;26.60;97.50;;;;;;5063982;28;20507;-78
2022/01/28 09:45:17;;;;;;;1.70;0.50;;;26.70;97.30;;;;;;5075725;28;20114;-77
2022/01/28 09:47:46;;;;;;;4.40;0.57;;;26.70;97.40;;;;;;5065399;28;20021;-77
2022/01/28 09:50:15;;;;;;;3.58;0.50;;;26.60;97.60;;;;;;5064459;28;20484;-77
2022/01/28 09:52:42;;;;;;;5.97;1.67;;;26.50;97.60;;;;;;5066098;28;20028;-77
2022/01/28 09:55:11;;;;;;;2.97;0.88;;;26.40;97.80;;;;;;5062233;28;20035;-76
2022/01/28 09:57:38;;;;;;;3.58;0.65;;;26.30;98.10;;;;;;5060838;28;20450;-77
2022/01/28 10:00:07;;;;;;;2.75;0.60;;;26.30;98.00;;;;;;5058124;28;20032;-76
2022/01/28 10:03:04;;;;;;;4.10;0.63;;;26.30;98.00;;;;;;5062362;28;20566;-76
2022/01/28 10:05:39;;;;;;;2.50;1.00;;;26.30;98.10;;;;;;5061285;28;20033;-76
2022/01/28 10:08:20;;;;;;;4.65;0.60;;;26.30;98.20;;;;;;5060899;28;20499;-75
2022/01/28 10:10:53;;;;;;;3.53;0.70;;;26.30;98.20;;;;;;5065709;28;20094;-75
2022/01/28 10:13:28;;;;;;;5.85;1.25;;;26.20;98.20;;;;;;5058401;28;20035;-77
2022/01/28 10:15:59;;;;;;;;;;;26.20;98.30;;;;;;5062569;28;20052;-77
2022/01/28 10:18:48;;;;;;;5.07;0.70;;;26.10;98.40;;;;;;5050360;28;19909;-77
2022/01/28 10:21:32;;;;;;;2.67;0.90;;;26.20;98.30;;;;;;5062759;28;20028;-75
2022/01/28 10:24:04;;;;;;;0.98;0.43;;;26.10;98.50;;;;;;5063528;28;20090;-75
2022/01/28 10:26:38;;;;;;;6.00;1.52;;;26.00;98.40;;;;;;5065278;28;20167;-77
2022/01/28 10:29:23;;;;;;;5.28;0.68;;;26.10;98.60;;;;;;5058877;28;20078;-75
2022/01/28 10:31:53;;;;;;;5.30;0.80;;;26.00;98.80;;;;;;5049445;28;20037;-75
2022/01/28 10:34:25;;;;;;;4.15;0.55;;;26.00;98.70;;;;;;5057292;28;20043;-75
2022/01/28 10:37:10;;;;;;;6.72;1.02;;;25.90;99.10;;;;;;5053747;28;20036;-75
2022/01/28 10:40:07;;;;;;;3.67;0.80;;;25.90;99.00;;;;;;5059762;28;20111;-75
2022/01/28 10:42:51;;;;;;;5.20;1.05;;;26.00;98.80;;;;;;5062573;28;20113;-76
2022/01/28 10:45:21;;;;;;;5.07;1.38;;;26.00;98.80;;;;;;5064151;28;20050;-77
2022/01/28 10:47:55;;;;;;;2.40;0.55;;;25.90;98.80;;;;;;5051802;28;20036;-77
2022/01/28 10:50:28;;;;;;;5.45;1.00;;;25.90;98.90;;;;;;5055063;28;20119;-77
2022/01/28 10:53:12;;;;;;;4.35;1.17;;;25.90;98.80;;;;;;5048678;28;20424;-74
2022/01/28 10:55:46;;;;;;;4.07;0.55;;;26.00;98.90;;;;;;5051191;28;20083;-74
2022/01/28 10:58:16;;;;;;;4.70;1.02;;;25.90;98.90;;;;;;5052711;28;20111;-75
2022/01/28 11:00:45;;;;;;;3.90;0.70;;;25.70;99.10;;;;;;5053989;28;20522;-75
2022/01/28 11:03:16;;;;;;;3.80;1.30;;;25.70;99.20;;;;;;5049917;28;20085;-75
2022/01/28 11:05:45;;;;;;;1.75;0.90;;;25.70;99.20;;;;;;5064045;28;20025;-74
2022/01/28 11:08:14;;;;;;;9.52;1.75;;;25.60;99.30;;;;;;5050758;28;20047;-74
2022/01/28 11:10:43;;;;;;;8.13;2.50;;;25.60;99.40;;;;;;5054522;28;20036;-76
2022/01/28 11:13:11;;;;;;;5.15;0.55;;;25.60;99.40;;;;;;5055862;28;20364;-74
2022/01/28 11:15:39;;;;;;;3.53;0.63;;;25.60;99.60;;;;;;5056886;28;20040;-74
2022/01/28 11:18:09;;;;;;;4.95;0.85;;;25.50;99.50;;;;;;5054192;28;20064;-74
2022/01/28 11:21:04;;;;;;;1.50;0.60;;;25.60;99.50;;;;;;5054598;28;20489;-75
2022/01/28 11:23:49;;;;;;;4.15;0.85;;;25.60;99.60;;;;;;5051460;28;20067;-75
2022/01/28 11:26:50;;;;;;;3.60;0.95;;;25.60;99.50;;;;;;5053871;28;20436;-74
2022/01/28 11:29:25;;;;;;;6.30;0.60;;;25.60;99.60;;;;;;5041425;28;20063;-74
2022/01/28 11:31:55;;;;;;;4.53;0.73;;;25.50;99.70;;;;;;5054698;28;20074;-73
2022/01/28 11:34:26;;;;;;;6.05;1.02;;;25.40;99.90;;;;;;5054663;28;20063;-75
2022/01/28 11:36:56;;;;;;;2.25;0.60;;;25.50;99.90;;;;;;5053323;28;20364;-74
2022/01/28 11:39:41;;;;;;;5.55;0.70;;;25.50;99.80;;;;;;5065035;28;20039;-74
2022/01/28 11:42:29;;;;;;;5.13;0.60;;;25.40;99.90;;;;;;5066497;28;20102;-74
2022/01/28 11:44:59;;;;;;;4.55;0.65;;;25.40;99.90;;;;;;5056275;28;20044;-74
2022/01/28 11:47:32;;;;;;;2.80;0.73;;;25.40;99.90;;;;;;5054250;28;20025;-74
2022/01/28 11:50:06;;;;;;;2.22;0.70;;;25.30;99.90;;;;;;5059816;28;20040;-74
2022/01/28 11:52:41;;;;;;;2.50;0.55;;;25.20;99.90;;;;;;5054713;28;20503;-74
2022/01/28 11:55:21;;;;;;;3.22;0.45;;;25.20;99.90;;;;;;5054306;28;20035;-74
2022/01/28 11:58:08;;;;;;;7.03;0.82;;;25.10;99.90;;;;;;5052275;28;20328;-74
2022/01/28 12:00:38;;;;;;;4.80;0.88;;;25.20;99.90;;;;;;5050902;28;20364;-73
2022/01/28 12:03:25;;;;;;;6.88;0.55;;;25.20;99.90;;;;;;5041351;28;20128;-73
2022/01/28 12:06:06;;;;;;;6.25;0.77;;;25.10;99.90;;;;;;5050767;28;20533;-73
2022/01/28 12:08:38;;;;;;;2.83;0.60;;;25.10;99.90;;;;;;5057498;28;20064;-74
2022/01/28 12:11:08;;;;;;;3.85;0.77;;;25.00;99.90;;;;;;5053440;28;20561;-75
2022/01/28 12:14:14;;;;;;;3.33;0.50;;;24.90;99.90;;;;;;5055173;28;20444;-74
2022/01/28 12:16:45;;;;;;;3.30;0.70;;;24.90;99.90;;;;;;5067455;28;20129;-75
2022/01/28 12:19:20;;;;;;;3.42;0.65;;;24.90;99.90;;;;;;5065372;28;20029;-74
2022/01/28 12:22:08;;;;;;;4.70;1.02;;;24.80;99.90;;;;;;5062306;28;20194;-73
2022/01/28 12:24:37;;;;;;;6.13;1.00;;;24.70;99.90;;;;;;5057567;28;20047;-76
2022/01/28 12:27:13;;;;;;;4.13;1.42;;;24.70;99.90;;;;;;5059585;28;20052;-78
2022/01/28 12:29:50;;;;;;;3.40;0.80;;;24.70;99.90;;;;;;5068633;28;20048;-77
2022/01/28 12:32:25;;;;;;;9.57;0.70;;;24.60;99.90;;;;;;5069814;28;20025;-75
2022/01/28 12:34:54;;;;;;;2.80;1.00;;;24.60;99.90;;;;;;5057924;28;20135;-76
2022/01/28 12:37:23;;;;;;;4.75;0.70;;;24.60;99.90;;;;;;5065751;28;20036;-74
2022/01/28 12:40:13;;;;;;;5.38;0.82;;;24.60;99.90;;;;;;5059235;28;20044;-77
2022/01/28 12:42:41;;;;;;;3.13;0.77;;;24.60;99.90;;;;;;5056254;28;20059;-79
2022/01/28 12:45:09;;;;;;;5.10;1.00;;;24.60;99.90;;;;;;5057354;28;20021;-80
2022/01/28 12:47:36;;;;;;;6.80;1.20;;;24.50;99.90;;;;;;5051833;28;20094;-80
2022/01/28 12:50:04;;;;;;;3.83;0.60;;;24.50;99.90;;;;;;5060632;28;20067;-76
2022/01/28 12:52:33;;;;;;;3.50;0.88;;;24.50;99.90;;;;;;5053100;28;20365;-79
2022/01/28 12:55:01;;;;;;;7.20;1.35;;;24.40;99.90;;;;;;5061730;28;20395;-76
2022/01/28 12:57:28;;;;;;;6.10;1.13;;;24.30;99.90;;;;;;5059121;28;21849;-79
2022/01/28 12:59:55;;;;;;;2.22;1.00;;;24.30;99.90;;;;;;5064042;28;20089;-81
2022/01/28 13:02:24;;;;;;;8.77;1.30;;;24.20;99.90;;;;;;5075216;28;20102;-76
2022/01/28 13:10:26;;;;;;;3.33;0.50;;;24.10;99.90;;;;;;5057567;28;20047;-78
2022/01/28 13:13:12;;;;;;;4.35;1.67;;;24.00;99.90;;;;;;5066674;28;20028;-78
2022/01/28 13:15:39;;;;;;;;;;;24.00;99.90;;;;;;5066457;28;20087;-76
2022/01/28 13:18:08;;;;;;;4.32;0.70;;;24.00;99.90;;;;;;5068246;28;19908;-78
2022/01/28 13:20:40;;;;;;;8.18;0.80;;;24.00;99.90;;;;;;5067104;28;20025;-79
2022/01/28 13:23:10;;;;;;;2.85;0.60;;;23.90;99.90;;;;;;5066132;28;20036;-75
2022/01/28 13:25:38;;;;;;;5.15;1.30;;;23.90;99.90;;;;;;5062320;28;20017;-77
2022/01/28 13:28:13;;;;;;;4.50;0.63;;;23.90;99.90;;;;;;5062983;28;20555;-75
2022/01/28 13:30:41;;;;;;;3.17;0.73;;;23.90;99.90;;;;;;5060751;28;20033;-75
2022/01/28 13:33:10;;;;;;;7.25;0.80;;;23.80;99.90;;;;;;5056525;28;20039;-75
2022/01/28 13:35:39;;;;;;;5.53;0.93;;;23.80;99.90;;;;;;5063801;28;20024;-75
2022/01/28 13:38:20;;;;;;;3.97;1.30;;;23.80;99.90;;;;;;5067635;28;20044;-77
2022/01/28 13:40:47;;;;;;;11.20;0.93;;;23.80;99.90;;;;;;5056385;28;20041;-76
2022/01/28 13:43:18;;;;;;;3.80;0.60;;;23.70;99.90;;;;;;5056497;28;20028;-76
2022/01/28 13:46:03;;;;;;;5.65;0.68;;;23.70;99.90;;;;;;5070095;28;20028;-76
2022/01/28 13:48:34;;;;;;;;;;;23.70;99.90;;;;;;5060077;28;20029;-76
2022/01/28 13:51:19;;;;;;;5.95;0.93;;;23.70;99.90;;;;;;5058764;28;19954;-76
2022/01/28 13:56:46;;;;;;;4.85;1.40;;;23.70;99.90;;;;;;5066758;28;20024;-75
2022/01/28 13:59:15;;;;;;;6.95;0.93;;;23.70;99.90;;;;;;5058621;28;20025;-77
2022/01/28 14:01:48;;;;;;;2.03;0.93;;;23.70;99.90;;;;;;5074453;28;20128;-76
2022/01/28 14:04:27;;;;;;;2.53;0.70;;;23.70;99.90;;;;;;5073830;28;20048;-75
2022/01/28 14:07:11;;;;;;;8.50;1.15;;;23.70;99.90;;;;;;5069105;28;20120;-75
2022/01/28 14:09:57;;;;;;;8.30;0.98;;;23.70;99.90;;;;;;5060886;28;20040;-74
2022/01/28 14:12:45;;;;;;;13.35;2.40;;;23.60;99.90;;;;;;5066948;28;20043;-75
2022/01/28 14:15:32;;;;;;;5.80;0.95;;;23.60;99.90;;;;;;5050580;28;20543;-75
2022/01/28 14:18:03;;;;;;;6.95;0.88;;;23.50;99.90;;;;;;5052012;28;20041;-75
2022/01/28 14:20:31;;;;;;;3.80;0.95;;;23.40;99.90;;;;;;5061378;28;20395;-75
2022/01/28 14:22:59;;;;;;;5.53;1.60;;;23.40;99.90;;;;;;5068274;28;20036;-77
2022/01/28 14:25:26;;;;;;;8.43;1.52;;;23.40;99.90;;;;;;5067442;28;20029;-77
2022/01/28 14:28:34;;;;;;;5.57;0.90;;;23.30;99.90;;;;;;5051069;28;20402;-76
2022/01/28 14:31:08;;;;;;;2.63;1.17;;;23.30;99.90;;;;;;5049457;28;20044;-75
2022/01/28 14:33:36;;;;;;;4.53;1.33;;;23.20;99.90;;;;;;5054578;28;20108;-77
2022/01/28 14:36:04;;;;;;;7.05;0.80;;;23.20;99.90;;;;;;5060377;28;20411;-74
2022/01/28 14:38:31;;;;;;;9.85;1.77;;;23.20;99.90;;;;;;5058213;28;20042;-75
2022/01/28 14:40:59;;;;;;;5.63;0.88;;;23.20;99.90;;;;;;5062252;28;20123;-75